sensor_id;sensor_type;location;lat;lon;timestamp;temperature;humidity
59977;DHT22;45837;51.076;3.578;2022-10-31T00:02:05;19.10;66.00
59977;DHT22;45837;51.076;3.578;2022-10-31T00:04:30;19.10;65.90
59977;DHT22;45837;51.076;3.578;2022-10-31T00:06:57;19.10;65.70
59977;DHT22;45837;51.076;3.578;2022-10-31T00:09:22;19.10;65.90
59977;DHT22;45837;51.076;3.578;2022-10-31T00:11:48;19.00;65.80
59977;DHT22;45837;51.076;3.578;2022-10-31T00:14:14;19.10;65.90
59977;DHT22;45837;51.076;3.578;2022-10-31T00:16:40;19.10;65.90
59977;DHT22;45837;51.076;3.578;2022-10-31T00:19:07;19.10;66.00
59977;DHT22;45837;51.076;3.578;2022-10-31T00:21:34;19.10;66.00
59977;DHT22;45837;51.076;3.578;2022-10-31T00:24:01;19.10;66.10
59977;DHT22;45837;51.076;3.578;2022-10-31T00:26:28;19.10;66.00
59977;DHT22;45837;51.076;3.578;2022-10-31T00:28:54;19.10;66.00
59977;DHT22;45837;51.076;3.578;2022-10-31T00:31:20;19.10;66.00
59977;DHT22;45837;51.076;3.578;2022-10-31T00:33:46;19.10;66.00
59977;DHT22;45837;51.076;3.578;2022-10-31T00:36:15;19.10;65.80
59977;DHT22;45837;51.076;3.578;2022-10-31T00:38:42;19.10;66.00
59977;DHT22;45837;51.076;3.578;2022-10-31T00:41:09;19.10;65.90
59977;DHT22;45837;51.076;3.578;2022-10-31T00:43:35;19.00;65.80
59977;DHT22;45837;51.076;3.578;2022-10-31T00:46:01;19.10;65.80
59977;DHT22;45837;51.076;3.578;2022-10-31T00:48:27;19.00;65.60
59977;DHT22;45837;51.076;3.578;2022-10-31T00:50:53;19.00;65.50
59977;DHT22;45837;51.076;3.578;2022-10-31T00:53:19;19.00;65.60
59977;DHT22;45837;51.076;3.578;2022-10-31T00:55:46;19.00;65.70
59977;DHT22;45837;51.076;3.578;2022-10-31T00:58:12;18.90;65.70
59977;DHT22;45837;51.076;3.578;2022-10-31T01:00:38;19.00;65.70
59977;DHT22;45837;51.076;3.578;2022-10-31T01:03:04;19.00;65.80
59977;DHT22;45837;51.076;3.578;2022-10-31T01:05:30;19.00;65.70
59977;DHT22;45837;51.076;3.578;2022-10-31T01:07:56;19.00;65.70
59977;DHT22;45837;51.076;3.578;2022-10-31T01:10:22;19.00;65.70
59977;DHT22;45837;51.076;3.578;2022-10-31T01:12:49;19.00;65.80
59977;DHT22;45837;51.076;3.578;2022-10-31T01:15:17;19.00;65.70
59977;DHT22;45837;51.076;3.578;2022-10-31T01:17:44;18.90;65.40
59977;DHT22;45837;51.076;3.578;2022-10-31T01:20:12;19.00;65.40
59977;DHT22;45837;51.076;3.578;2022-10-31T01:22:38;19.00;65.30
59977;DHT22;45837;51.076;3.578;2022-10-31T01:25:04;19.00;65.50
59977;DHT22;45837;51.076;3.578;2022-10-31T01:27:31;19.00;65.30
59977;DHT22;45837;51.076;3.578;2022-10-31T01:29:57;19.00;65.30
59977;DHT22;45837;51.076;3.578;2022-10-31T01:32:23;19.00;65.20
59977;DHT22;45837;51.076;3.578;2022-10-31T01:34:50;19.00;65.30
59977;DHT22;45837;51.076;3.578;2022-10-31T01:37:16;19.00;65.30
59977;DHT22;45837;51.076;3.578;2022-10-31T01:39:42;19.00;65.10
59977;DHT22;45837;51.076;3.578;2022-10-31T01:42:12;19.00;64.90
59977;DHT22;45837;51.076;3.578;2022-10-31T01:47:17;19.00;65.00
59977;DHT22;45837;51.076;3.578;2022-10-31T01:49:54;19.00;64.90
59977;DHT22;45837;51.076;3.578;2022-10-31T01:52:26;19.00;64.90
59977;DHT22;45837;51.076;3.578;2022-10-31T01:55:05;18.90;64.70
59977;DHT22;45837;51.076;3.578;2022-10-31T01:57:35;19.00;64.80
59977;DHT22;45837;51.076;3.578;2022-10-31T02:00:07;18.90;64.70
59977;DHT22;45837;51.076;3.578;2022-10-31T02:02:39;18.90;64.50
59977;DHT22;45837;51.076;3.578;2022-10-31T02:05:08;18.90;64.40
59977;DHT22;45837;51.076;3.578;2022-10-31T02:07:52;18.90;64.30
59977;DHT22;45837;51.076;3.578;2022-10-31T02:10:21;18.90;64.50
59977;DHT22;45837;51.076;3.578;2022-10-31T02:12:50;18.90;64.40
59977;DHT22;45837;51.076;3.578;2022-10-31T02:15:16;18.90;64.30
59977;DHT22;45837;51.076;3.578;2022-10-31T02:17:42;18.90;65.00
59977;DHT22;45837;51.076;3.578;2022-10-31T02:20:17;18.90;64.20
59977;DHT22;45837;51.076;3.578;2022-10-31T02:29:05;18.90;64.10
59977;DHT22;45837;51.076;3.578;2022-10-31T02:31:42;18.90;63.90
59977;DHT22;45837;51.076;3.578;2022-10-31T02:34:23;18.90;64.00
59977;DHT22;45837;51.076;3.578;2022-10-31T02:37:14;18.80;63.90
59977;DHT22;45837;51.076;3.578;2022-10-31T02:40:09;18.90;63.70
59977;DHT22;45837;51.076;3.578;2022-10-31T02:43:06;18.80;63.80
59977;DHT22;45837;51.076;3.578;2022-10-31T02:45:43;18.80;63.80
59977;DHT22;45837;51.076;3.578;2022-10-31T02:48:17;18.90;63.90
59977;DHT22;45837;51.076;3.578;2022-10-31T02:50:52;18.80;63.90
59977;DHT22;45837;51.076;3.578;2022-10-31T02:53:18;18.80;63.70
59977;DHT22;45837;51.076;3.578;2022-10-31T02:56:06;18.80;63.90
59977;DHT22;45837;51.076;3.578;2022-10-31T02:58:37;18.80;63.60
59977;DHT22;45837;51.076;3.578;2022-10-31T03:04:03;18.80;63.50
59977;DHT22;45837;51.076;3.578;2022-10-31T03:06:39;18.80;63.50
59977;DHT22;45837;51.076;3.578;2022-10-31T03:09:22;18.80;63.50
59977;DHT22;45837;51.076;3.578;2022-10-31T03:11:55;18.80;63.60
59977;DHT22;45837;51.076;3.578;2022-10-31T03:14:43;18.80;63.50
59977;DHT22;45837;51.076;3.578;2022-10-31T03:17:24;18.80;63.40
59977;DHT22;45837;51.076;3.578;2022-10-31T03:19:55;18.80;63.40
59977;DHT22;45837;51.076;3.578;2022-10-31T03:22:28;18.70;63.20
59977;DHT22;45837;51.076;3.578;2022-10-31T03:24:58;18.70;63.30
59977;DHT22;45837;51.076;3.578;2022-10-31T03:27:27;18.70;64.10
59977;DHT22;45837;51.076;3.578;2022-10-31T03:29:57;18.70;63.20
59977;DHT22;45837;51.076;3.578;2022-10-31T03:32:40;18.80;63.30
59977;DHT22;45837;51.076;3.578;2022-10-31T03:35:08;18.70;63.10
59977;DHT22;45837;51.076;3.578;2022-10-31T03:37:39;18.70;63.00
59977;DHT22;45837;51.076;3.578;2022-10-31T03:40:11;18.70;63.10
59977;DHT22;45837;51.076;3.578;2022-10-31T03:42:43;18.80;63.10
59977;DHT22;45837;51.076;3.578;2022-10-31T03:45:23;18.70;63.00
59977;DHT22;45837;51.076;3.578;2022-10-31T03:47:50;18.70;62.90
59977;DHT22;45837;51.076;3.578;2022-10-31T03:50:18;18.80;63.00
59977;DHT22;45837;51.076;3.578;2022-10-31T03:53:02;18.70;62.90
59977;DHT22;45837;51.076;3.578;2022-10-31T03:55:42;18.80;63.00
59977;DHT22;45837;51.076;3.578;2022-10-31T03:58:18;18.70;62.80
59977;DHT22;45837;51.076;3.578;2022-10-31T04:00:46;18.70;62.80
59977;DHT22;45837;51.076;3.578;2022-10-31T04:03:19;18.70;62.90
59977;DHT22;45837;51.076;3.578;2022-10-31T04:05:50;18.70;63.10
59977;DHT22;45837;51.076;3.578;2022-10-31T04:08:20;18.70;62.80
59977;DHT22;45837;51.076;3.578;2022-10-31T04:10:48;18.70;62.90
59977;DHT22;45837;51.076;3.578;2022-10-31T04:13:25;18.70;62.80
59977;DHT22;45837;51.076;3.578;2022-10-31T04:16:00;18.70;62.70
59977;DHT22;45837;51.076;3.578;2022-10-31T04:18:27;18.70;62.70
59977;DHT22;45837;51.076;3.578;2022-10-31T04:21:05;18.60;62.70
59977;DHT22;45837;51.076;3.578;2022-10-31T04:23:32;18.70;62.90
59977;DHT22;45837;51.076;3.578;2022-10-31T04:25:59;18.70;62.70
59977;DHT22;45837;51.076;3.578;2022-10-31T04:28:25;18.60;62.80
59977;DHT22;45837;51.076;3.578;2022-10-31T04:30:52;18.70;62.80
59977;DHT22;45837;51.076;3.578;2022-10-31T04:33:18;18.70;62.70
59977;DHT22;45837;51.076;3.578;2022-10-31T04:35:46;18.60;62.60
59977;DHT22;45837;51.076;3.578;2022-10-31T04:38:12;18.70;62.60
59977;DHT22;45837;51.076;3.578;2022-10-31T04:40:39;18.60;62.60
59977;DHT22;45837;51.076;3.578;2022-10-31T04:43:33;18.70;62.80
59977;DHT22;45837;51.076;3.578;2022-10-31T04:46:00;18.60;62.80
59977;DHT22;45837;51.076;3.578;2022-10-31T04:48:27;18.60;62.70
59977;DHT22;45837;51.076;3.578;2022-10-31T04:50:53;18.60;62.80
59977;DHT22;45837;51.076;3.578;2022-10-31T04:53:19;18.60;62.50
59977;DHT22;45837;51.076;3.578;2022-10-31T04:56:04;18.60;62.30
59977;DHT22;45837;51.076;3.578;2022-10-31T04:58:39;18.60;62.40
59977;DHT22;45837;51.076;3.578;2022-10-31T05:01:07;18.60;62.10
59977;DHT22;45837;51.076;3.578;2022-10-31T05:03:33;18.60;62.00
59977;DHT22;45837;51.076;3.578;2022-10-31T05:05:59;18.60;62.20
59977;DHT22;45837;51.076;3.578;2022-10-31T05:08:24;18.60;62.40
59977;DHT22;45837;51.076;3.578;2022-10-31T05:10:51;18.60;62.50
59977;DHT22;45837;51.076;3.578;2022-10-31T05:13:17;18.60;62.30
59977;DHT22;45837;51.076;3.578;2022-10-31T05:16:06;18.60;62.30
59977;DHT22;45837;51.076;3.578;2022-10-31T05:18:37;18.60;62.20
59977;DHT22;45837;51.076;3.578;2022-10-31T05:21:22;18.60;62.40
59977;DHT22;45837;51.076;3.578;2022-10-31T05:23:51;18.60;62.30
59977;DHT22;45837;51.076;3.578;2022-10-31T05:26:19;18.60;62.10
59977;DHT22;45837;51.076;3.578;2022-10-31T05:28:46;18.50;62.00
59977;DHT22;45837;51.076;3.578;2022-10-31T05:31:12;18.60;61.90
59977;DHT22;45837;51.076;3.578;2022-10-31T05:33:38;18.60;62.00
59977;DHT22;45837;51.076;3.578;2022-10-31T05:36:04;18.50;62.00
59977;DHT22;45837;51.076;3.578;2022-10-31T05:38:35;18.60;62.00
59977;DHT22;45837;51.076;3.578;2022-10-31T05:41:10;18.60;62.00
59977;DHT22;45837;51.076;3.578;2022-10-31T05:43:36;18.50;61.70
59977;DHT22;45837;51.076;3.578;2022-10-31T05:46:05;18.50;61.40
59977;DHT22;45837;51.076;3.578;2022-10-31T05:49:06;18.50;61.40
59977;DHT22;45837;51.076;3.578;2022-10-31T05:51:50;18.50;61.70
59977;DHT22;45837;51.076;3.578;2022-10-31T05:54:16;18.50;61.90
59977;DHT22;45837;51.076;3.578;2022-10-31T05:56:44;18.50;61.90
59977;DHT22;45837;51.076;3.578;2022-10-31T05:59:11;18.50;62.10
59977;DHT22;45837;51.076;3.578;2022-10-31T06:01:38;18.60;61.90
59977;DHT22;45837;51.076;3.578;2022-10-31T06:04:09;18.60;61.90
59977;DHT22;45837;51.076;3.578;2022-10-31T06:06:36;18.50;61.90
59977;DHT22;45837;51.076;3.578;2022-10-31T06:09:01;18.50;61.80
59977;DHT22;45837;51.076;3.578;2022-10-31T06:11:31;18.50;61.70
59977;DHT22;45837;51.076;3.578;2022-10-31T06:14:04;18.50;61.80
59977;DHT22;45837;51.076;3.578;2022-10-31T06:16:37;18.50;61.80
59977;DHT22;45837;51.076;3.578;2022-10-31T06:19:26;18.50;61.90
59977;DHT22;45837;51.076;3.578;2022-10-31T06:21:52;18.50;61.90
59977;DHT22;45837;51.076;3.578;2022-10-31T06:24:18;18.50;61.90
59977;DHT22;45837;51.076;3.578;2022-10-31T06:26:52;18.50;61.50
59977;DHT22;45837;51.076;3.578;2022-10-31T06:29:18;18.50;61.30
59977;DHT22;45837;51.076;3.578;2022-10-31T06:32:19;18.50;61.60
59977;DHT22;45837;51.076;3.578;2022-10-31T06:34:46;18.50;61.70
59977;DHT22;45837;51.076;3.578;2022-10-31T06:37:14;18.50;61.70
59977;DHT22;45837;51.076;3.578;2022-10-31T06:39:44;18.50;61.80
59977;DHT22;45837;51.076;3.578;2022-10-31T06:42:11;18.50;61.30
59977;DHT22;45837;51.076;3.578;2022-10-31T06:44:37;18.50;61.40
59977;DHT22;45837;51.076;3.578;2022-10-31T06:47:22;18.50;61.40
59977;DHT22;45837;51.076;3.578;2022-10-31T06:50:08;18.40;61.30
59977;DHT22;45837;51.076;3.578;2022-10-31T06:52:34;18.50;61.50
59977;DHT22;45837;51.076;3.578;2022-10-31T06:55:01;18.40;61.40
59977;DHT22;45837;51.076;3.578;2022-10-31T06:57:28;18.50;61.50
59977;DHT22;45837;51.076;3.578;2022-10-31T06:59:54;18.40;61.80
59977;DHT22;45837;51.076;3.578;2022-10-31T07:02:37;18.40;61.80
59977;DHT22;45837;51.076;3.578;2022-10-31T07:05:05;18.40;61.80
59977;DHT22;45837;51.076;3.578;2022-10-31T07:07:32;18.40;61.80
59977;DHT22;45837;51.076;3.578;2022-10-31T07:09:57;18.40;61.80
59977;DHT22;45837;51.076;3.578;2022-10-31T07:12:41;18.50;61.90
59977;DHT22;45837;51.076;3.578;2022-10-31T07:15:08;18.50;61.90
59977;DHT22;45837;51.076;3.578;2022-10-31T07:17:36;18.40;61.80
59977;DHT22;45837;51.076;3.578;2022-10-31T07:20:03;18.50;61.90
59977;DHT22;45837;51.076;3.578;2022-10-31T07:22:35;18.50;61.90
59977;DHT22;45837;51.076;3.578;2022-10-31T07:25:04;18.40;61.90
59977;DHT22;45837;51.076;3.578;2022-10-31T07:27:39;18.50;62.10
59977;DHT22;45837;51.076;3.578;2022-10-31T07:30:08;18.40;62.00
59977;DHT22;45837;51.076;3.578;2022-10-31T07:32:39;18.40;62.00
59977;DHT22;45837;51.076;3.578;2022-10-31T07:35:10;18.40;62.10
59977;DHT22;45837;51.076;3.578;2022-10-31T07:37:46;18.50;62.20
59977;DHT22;45837;51.076;3.578;2022-10-31T07:40:12;18.50;62.00
59977;DHT22;45837;51.076;3.578;2022-10-31T07:42:40;18.40;62.00
59977;DHT22;45837;51.076;3.578;2022-10-31T07:45:12;18.50;62.00
59977;DHT22;45837;51.076;3.578;2022-10-31T07:47:58;18.50;62.10
59977;DHT22;45837;51.076;3.578;2022-10-31T07:50:44;18.50;62.20
59977;DHT22;45837;51.076;3.578;2022-10-31T07:53:11;18.40;62.20
59977;DHT22;45837;51.076;3.578;2022-10-31T07:55:37;18.50;62.40
59977;DHT22;45837;51.076;3.578;2022-10-31T07:58:10;18.50;62.40
59977;DHT22;45837;51.076;3.578;2022-10-31T08:00:40;18.50;62.30
59977;DHT22;45837;51.076;3.578;2022-10-31T08:03:09;18.50;62.50
59977;DHT22;45837;51.076;3.578;2022-10-31T08:05:54;18.50;62.60
59977;DHT22;45837;51.076;3.578;2022-10-31T08:08:38;18.50;62.80
59977;DHT22;45837;51.076;3.578;2022-10-31T08:11:06;18.50;62.80
59977;DHT22;45837;51.076;3.578;2022-10-31T08:13:32;18.50;62.90
59977;DHT22;45837;51.076;3.578;2022-10-31T08:15:58;18.50;63.20
59977;DHT22;45837;51.076;3.578;2022-10-31T08:18:29;18.40;62.90
59977;DHT22;45837;51.076;3.578;2022-10-31T08:20:56;18.50;63.00
59977;DHT22;45837;51.076;3.578;2022-10-31T08:23:22;18.50;63.20
59977;DHT22;45837;51.076;3.578;2022-10-31T08:25:48;18.40;63.00
59977;DHT22;45837;51.076;3.578;2022-10-31T08:28:14;18.50;63.20
59977;DHT22;45837;51.076;3.578;2022-10-31T08:30:42;18.50;63.20
59977;DHT22;45837;51.076;3.578;2022-10-31T08:33:31;18.50;63.20
59977;DHT22;45837;51.076;3.578;2022-10-31T08:36:20;18.50;63.20
59977;DHT22;45837;51.076;3.578;2022-10-31T08:38:59;18.50;63.50
59977;DHT22;45837;51.076;3.578;2022-10-31T08:41:26;18.50;63.70
59977;DHT22;45837;51.076;3.578;2022-10-31T08:43:52;18.50;63.70
59977;DHT22;45837;51.076;3.578;2022-10-31T08:46:18;18.50;63.40
59977;DHT22;45837;51.076;3.578;2022-10-31T08:48:44;18.50;63.50
59977;DHT22;45837;51.076;3.578;2022-10-31T08:51:10;18.50;63.40
59977;DHT22;45837;51.076;3.578;2022-10-31T08:53:36;18.50;63.40
59977;DHT22;45837;51.076;3.578;2022-10-31T08:56:22;18.60;63.50
59977;DHT22;45837;51.076;3.578;2022-10-31T08:58:49;18.50;63.40
59977;DHT22;45837;51.076;3.578;2022-10-31T09:01:21;18.60;63.50
59977;DHT22;45837;51.076;3.578;2022-10-31T09:03:46;18.60;63.70
59977;DHT22;45837;51.076;3.578;2022-10-31T09:06:12;18.60;63.60
59977;DHT22;45837;51.076;3.578;2022-10-31T09:08:38;18.60;63.80
59977;DHT22;45837;51.076;3.578;2022-10-31T09:11:05;18.60;63.80
59977;DHT22;45837;51.076;3.578;2022-10-31T09:13:52;18.60;64.00
59977;DHT22;45837;51.076;3.578;2022-10-31T09:16:26;18.60;64.00
59977;DHT22;45837;51.076;3.578;2022-10-31T09:18:53;18.50;64.00
59977;DHT22;45837;51.076;3.578;2022-10-31T09:21:19;18.60;64.20
59977;DHT22;45837;51.076;3.578;2022-10-31T09:23:46;18.60;64.10
59977;DHT22;45837;51.076;3.578;2022-10-31T09:26:11;18.60;64.00
59977;DHT22;45837;51.076;3.578;2022-10-31T09:29:00;18.60;63.90
59977;DHT22;45837;51.076;3.578;2022-10-31T09:31:29;18.60;64.00
59977;DHT22;45837;51.076;3.578;2022-10-31T09:34:05;18.60;64.20
59977;DHT22;45837;51.076;3.578;2022-10-31T09:36:37;18.60;64.20
59977;DHT22;45837;51.076;3.578;2022-10-31T09:39:06;18.60;64.30
59977;DHT22;45837;51.076;3.578;2022-10-31T09:50:56;18.60;64.30
59977;DHT22;45837;51.076;3.578;2022-10-31T09:53:57;18.60;64.30
59977;DHT22;45837;51.076;3.578;2022-10-31T09:56:25;18.60;64.10
59977;DHT22;45837;51.076;3.578;2022-10-31T09:58:59;18.70;64.30
59977;DHT22;45837;51.076;3.578;2022-10-31T10:04:24;18.60;64.50
59977;DHT22;45837;51.076;3.578;2022-10-31T10:07:06;18.70;64.50
59977;DHT22;45837;51.076;3.578;2022-10-31T10:09:42;18.70;64.50
59977;DHT22;45837;51.076;3.578;2022-10-31T10:26:19;18.70;64.40
59977;DHT22;45837;51.076;3.578;2022-10-31T10:29:02;18.70;64.50
59977;DHT22;45837;51.076;3.578;2022-10-31T10:31:37;18.70;64.50
59977;DHT22;45837;51.076;3.578;2022-10-31T10:34:19;18.80;64.70
59977;DHT22;45837;51.076;3.578;2022-10-31T10:37:05;18.80;64.60
59977;DHT22;45837;51.076;3.578;2022-10-31T10:39:41;18.80;64.80
59977;DHT22;45837;51.076;3.578;2022-10-31T10:42:13;18.80;64.60
59977;DHT22;45837;51.076;3.578;2022-10-31T10:44:58;18.80;64.60
59977;DHT22;45837;51.076;3.578;2022-10-31T10:47:47;18.80;64.40
59977;DHT22;45837;51.076;3.578;2022-10-31T10:50:19;18.90;64.70
59977;DHT22;45837;51.076;3.578;2022-10-31T10:56:27;18.90;64.50
59977;DHT22;45837;51.076;3.578;2022-10-31T10:58:57;18.90;64.70
59977;DHT22;45837;51.076;3.578;2022-10-31T11:01:23;18.90;64.70
59977;DHT22;45837;51.076;3.578;2022-10-31T11:03:49;18.90;64.80
59977;DHT22;45837;51.076;3.578;2022-10-31T11:06:25;18.90;65.00
59977;DHT22;45837;51.076;3.578;2022-10-31T11:08:52;18.90;65.00
59977;DHT22;45837;51.076;3.578;2022-10-31T11:11:29;18.90;65.10
59977;DHT22;45837;51.076;3.578;2022-10-31T11:14:12;18.90;65.30
59977;DHT22;45837;51.076;3.578;2022-10-31T11:16:42;18.90;65.40
59977;DHT22;45837;51.076;3.578;2022-10-31T11:21:41;18.90;65.70
59977;DHT22;45837;51.076;3.578;2022-10-31T11:26:37;18.90;66.40
59977;DHT22;45837;51.076;3.578;2022-10-31T11:29:24;18.90;65.80
59977;DHT22;45837;51.076;3.578;2022-10-31T11:31:55;18.90;65.70
59977;DHT22;45837;51.076;3.578;2022-10-31T11:34:35;18.90;65.70
59977;DHT22;45837;51.076;3.578;2022-10-31T11:37:09;18.80;65.60
59977;DHT22;45837;51.076;3.578;2022-10-31T11:39:41;18.90;65.80
59977;DHT22;45837;51.076;3.578;2022-10-31T11:42:08;18.90;65.80
59977;DHT22;45837;51.076;3.578;2022-10-31T11:44:34;18.90;66.00
59977;DHT22;45837;51.076;3.578;2022-10-31T11:47:03;18.90;66.00
59977;DHT22;45837;51.076;3.578;2022-10-31T11:49:36;18.90;66.00
59977;DHT22;45837;51.076;3.578;2022-10-31T11:52:15;18.90;66.00
59977;DHT22;45837;51.076;3.578;2022-10-31T11:54:54;18.90;66.10
59977;DHT22;45837;51.076;3.578;2022-10-31T11:59:54;18.90;66.20
59977;DHT22;45837;51.076;3.578;2022-10-31T12:02:21;18.90;66.30
59977;DHT22;45837;51.076;3.578;2022-10-31T12:04:53;18.90;66.60
59977;DHT22;45837;51.076;3.578;2022-10-31T12:07:19;18.90;66.50
59977;DHT22;45837;51.076;3.578;2022-10-31T12:09:45;18.80;66.40
59977;DHT22;45837;51.076;3.578;2022-10-31T12:12:34;18.80;66.40
59977;DHT22;45837;51.076;3.578;2022-10-31T12:17:53;18.80;66.60
59977;DHT22;45837;51.076;3.578;2022-10-31T12:20:40;18.80;66.60
59977;DHT22;45837;51.076;3.578;2022-10-31T12:31:05;18.80;67.00
59977;DHT22;45837;51.076;3.578;2022-10-31T12:58:39;18.80;67.70
59977;DHT22;45837;51.076;3.578;2022-10-31T13:01:44;18.80;67.80
59977;DHT22;45837;51.076;3.578;2022-10-31T13:07:00;18.80;67.80
59977;DHT22;45837;51.076;3.578;2022-10-31T13:09:40;18.80;67.90
59977;DHT22;45837;51.076;3.578;2022-10-31T13:12:11;18.80;68.00
59977;DHT22;45837;51.076;3.578;2022-10-31T13:14:49;18.80;68.00
59977;DHT22;45837;51.076;3.578;2022-10-31T13:17:38;18.80;67.90
59977;DHT22;45837;51.076;3.578;2022-10-31T13:22:46;18.90;68.60
59977;DHT22;45837;51.076;3.578;2022-10-31T13:25:31;18.90;68.80
59977;DHT22;45837;51.076;3.578;2022-10-31T13:31:09;19.10;69.10
59977;DHT22;45837;51.076;3.578;2022-10-31T13:33:57;19.30;68.80
59977;DHT22;45837;51.076;3.578;2022-10-31T13:36:48;19.50;68.00
59977;DHT22;45837;51.076;3.578;2022-10-31T13:41:51;19.80;67.10
59977;DHT22;45837;51.076;3.578;2022-10-31T13:44:24;19.90;66.80
59977;DHT22;45837;51.076;3.578;2022-10-31T13:46:51;20.00;66.60
59977;DHT22;45837;51.076;3.578;2022-10-31T13:54:43;20.10;66.70
59977;DHT22;45837;51.076;3.578;2022-10-31T13:57:28;20.20;66.50
59977;DHT22;45837;51.076;3.578;2022-10-31T13:59:58;20.20;66.10
59977;DHT22;45837;51.076;3.578;2022-10-31T14:02:46;20.30;66.00
59977;DHT22;45837;51.076;3.578;2022-10-31T14:05:32;20.30;65.90
59977;DHT22;45837;51.076;3.578;2022-10-31T14:08:03;20.40;65.90
59977;DHT22;45837;51.076;3.578;2022-10-31T14:10:46;20.40;65.80
59977;DHT22;45837;51.076;3.578;2022-10-31T14:13:38;20.40;65.70
59977;DHT22;45837;51.076;3.578;2022-10-31T14:16:20;20.40;65.50
59977;DHT22;45837;51.076;3.578;2022-10-31T14:18:59;20.40;65.50
59977;DHT22;45837;51.076;3.578;2022-10-31T14:21:26;20.40;65.50
59977;DHT22;45837;51.076;3.578;2022-10-31T14:23:54;20.40;65.50
59977;DHT22;45837;51.076;3.578;2022-10-31T14:28:57;20.40;65.40
59977;DHT22;45837;51.076;3.578;2022-10-31T14:34:22;20.50;65.30
59977;DHT22;45837;51.076;3.578;2022-10-31T14:45:14;20.50;65.60
59977;DHT22;45837;51.076;3.578;2022-10-31T14:47:45;20.50;65.60
59977;DHT22;45837;51.076;3.578;2022-10-31T14:53:03;20.50;65.60
59977;DHT22;45837;51.076;3.578;2022-10-31T14:55:30;20.50;65.60
59977;DHT22;45837;51.076;3.578;2022-10-31T14:58:00;20.50;65.60
59977;DHT22;45837;51.076;3.578;2022-10-31T15:00:28;20.60;65.50
59977;DHT22;45837;51.076;3.578;2022-10-31T15:03:17;20.60;65.40
59977;DHT22;45837;51.076;3.578;2022-10-31T15:05:55;20.60;65.40
59977;DHT22;45837;51.076;3.578;2022-10-31T15:08:46;20.60;65.40
59977;DHT22;45837;51.076;3.578;2022-10-31T15:13:50;20.60;65.70
59977;DHT22;45837;51.076;3.578;2022-10-31T15:16:40;20.60;65.70
59977;DHT22;45837;51.076;3.578;2022-10-31T15:19:07;20.70;65.60
59977;DHT22;45837;51.076;3.578;2022-10-31T15:21:34;20.70;65.50
59977;DHT22;45837;51.076;3.578;2022-10-31T15:24:02;20.70;65.60
59977;DHT22;45837;51.076;3.578;2022-10-31T15:26:39;20.70;65.80
59977;DHT22;45837;51.076;3.578;2022-10-31T15:29:17;20.70;65.70
59977;DHT22;45837;51.076;3.578;2022-10-31T15:31:59;20.70;65.80
59977;DHT22;45837;51.076;3.578;2022-10-31T15:34:38;20.80;66.00
59977;DHT22;45837;51.076;3.578;2022-10-31T15:37:09;20.80;66.80
59977;DHT22;45837;51.076;3.578;2022-10-31T15:39:35;20.80;67.40
59977;DHT22;45837;51.076;3.578;2022-10-31T15:42:01;20.70;68.60
59977;DHT22;45837;51.076;3.578;2022-10-31T15:44:33;20.70;68.50
59977;DHT22;45837;51.076;3.578;2022-10-31T15:47:05;20.70;69.80
59977;DHT22;45837;51.076;3.578;2022-10-31T15:49:42;20.70;70.10
59977;DHT22;45837;51.076;3.578;2022-10-31T15:54:50;20.80;68.50
59977;DHT22;45837;51.076;3.578;2022-10-31T15:57:17;20.80;68.30
59977;DHT22;45837;51.076;3.578;2022-10-31T15:59:46;20.80;68.10
59977;DHT22;45837;51.076;3.578;2022-10-31T16:02:14;20.80;68.70
59977;DHT22;45837;51.076;3.578;2022-10-31T16:07:19;20.80;69.10
59977;DHT22;45837;51.076;3.578;2022-10-31T16:12:37;20.80;69.30
59977;DHT22;45837;51.076;3.578;2022-10-31T16:15:14;20.80;69.30
59977;DHT22;45837;51.076;3.578;2022-10-31T16:17:43;20.90;69.40
59977;DHT22;45837;51.076;3.578;2022-10-31T16:20:27;20.90;69.30
59977;DHT22;45837;51.076;3.578;2022-10-31T16:22:55;20.90;69.20
59977;DHT22;45837;51.076;3.578;2022-10-31T16:25:37;20.90;69.10
59977;DHT22;45837;51.076;3.578;2022-10-31T16:28:05;20.90;69.00
59977;DHT22;45837;51.076;3.578;2022-10-31T16:30:44;20.90;69.10
59977;DHT22;45837;51.076;3.578;2022-10-31T16:36:00;20.90;68.80
59977;DHT22;45837;51.076;3.578;2022-10-31T16:38:27;20.90;68.60
59977;DHT22;45837;51.076;3.578;2022-10-31T16:40:53;20.90;68.50
59977;DHT22;45837;51.076;3.578;2022-10-31T16:43:20;21.00;68.60
59977;DHT22;45837;51.076;3.578;2022-10-31T16:45:49;21.00;68.90
59977;DHT22;45837;51.076;3.578;2022-10-31T16:48:20;20.90;68.50
59977;DHT22;45837;51.076;3.578;2022-10-31T16:50:48;20.90;68.50
59977;DHT22;45837;51.076;3.578;2022-10-31T16:53:15;20.90;68.50
59977;DHT22;45837;51.076;3.578;2022-10-31T16:58:15;20.90;68.90
59977;DHT22;45837;51.076;3.578;2022-10-31T17:00:41;20.90;68.90
59977;DHT22;45837;51.076;3.578;2022-10-31T17:03:07;20.90;68.70
59977;DHT22;45837;51.076;3.578;2022-10-31T17:05:34;20.90;68.70
59977;DHT22;45837;51.076;3.578;2022-10-31T17:08:00;20.90;68.50
59977;DHT22;45837;51.076;3.578;2022-10-31T17:10:26;20.90;68.20
59977;DHT22;45837;51.076;3.578;2022-10-31T17:12:53;20.90;68.20
59977;DHT22;45837;51.076;3.578;2022-10-31T17:15:25;20.80;68.10
59977;DHT22;45837;51.076;3.578;2022-10-31T17:17:52;20.90;68.10
59977;DHT22;45837;51.076;3.578;2022-10-31T17:20:26;20.90;68.10
59977;DHT22;45837;51.076;3.578;2022-10-31T17:22:53;20.90;68.10
59977;DHT22;45837;51.076;3.578;2022-10-31T17:25:25;20.80;68.20
59977;DHT22;45837;51.076;3.578;2022-10-31T17:27:51;20.80;68.90
59977;DHT22;45837;51.076;3.578;2022-10-31T17:30:18;20.80;70.60
59977;DHT22;45837;51.076;3.578;2022-10-31T17:32:45;20.80;71.00
59977;DHT22;45837;51.076;3.578;2022-10-31T17:35:12;20.80;71.70
59977;DHT22;45837;51.076;3.578;2022-10-31T17:37:39;20.80;72.40
59977;DHT22;45837;51.076;3.578;2022-10-31T17:40:11;20.80;73.10
59977;DHT22;45837;51.076;3.578;2022-10-31T17:42:37;20.80;73.10
59977;DHT22;45837;51.076;3.578;2022-10-31T17:45:05;20.90;72.60
59977;DHT22;45837;51.076;3.578;2022-10-31T17:47:33;20.90;72.30
59977;DHT22;45837;51.076;3.578;2022-10-31T17:49:59;20.90;72.10
59977;DHT22;45837;51.076;3.578;2022-10-31T17:52:25;20.90;72.00
59977;DHT22;45837;51.076;3.578;2022-10-31T17:54:51;20.90;72.00
59977;DHT22;45837;51.076;3.578;2022-10-31T17:57:17;20.90;72.00
59977;DHT22;45837;51.076;3.578;2022-10-31T17:59:43;20.90;71.80
59977;DHT22;45837;51.076;3.578;2022-10-31T18:02:10;20.90;71.80
59977;DHT22;45837;51.076;3.578;2022-10-31T18:04:36;20.90;71.80
59977;DHT22;45837;51.076;3.578;2022-10-31T18:07:03;20.90;71.70
59977;DHT22;45837;51.076;3.578;2022-10-31T18:09:29;21.00;71.70
59977;DHT22;45837;51.076;3.578;2022-10-31T18:11:55;20.90;71.60
59977;DHT22;45837;51.076;3.578;2022-10-31T18:14:21;20.90;71.40